createdAt,value
2022-10-02T00:00:13.026Z,97846.78
2022-10-02T00:01:33.565Z,97852.28
2022-10-02T00:02:40.428Z,97852.41
2022-10-02T00:03:45.208Z,97863.28
2022-10-02T00:05:18.070Z,97857.19
2022-10-02T00:06:26.504Z,97864.72
2022-10-02T00:07:38.362Z,97862.22
2022-10-02T00:08:42.792Z,97864.47
2022-10-02T00:10:15.138Z,97865.19
2022-10-02T00:11:25.068Z,97866.16
2022-10-02T00:12:30.972Z,97872.53
2022-10-02T00:13:45.157Z,97873.09
2022-10-02T00:14:52.686Z,97885.09
2022-10-02T00:15:56.545Z,97875.50
2022-10-02T00:17:02.013Z,97873.25
2022-10-02T00:18:11.882Z,97881.41
2022-10-02T00:19:19.382Z,97884.28
2022-10-02T00:20:32.289Z,97895.41
2022-10-02T00:21:54.692Z,97885.84
2022-10-02T00:23:19.545Z,97892.66
2022-10-02T00:24:31.036Z,97892.06
2022-10-02T00:25:49.758Z,97887.50
2022-10-02T00:27:05.700Z,97887.91
2022-10-02T00:28:42.884Z,97882.06
2022-10-02T00:29:51.637Z,97889.72
2022-10-02T00:31:06.717Z,97892.31
2022-10-02T00:32:46.714Z,97892.56
2022-10-02T00:34:15.300Z,97897.72
2022-10-02T00:35:34.163Z,97902.41
2022-10-02T00:37:14.770Z,97895.56
2022-10-02T00:38:55.481Z,97909.09
2022-10-02T00:40:43.140Z,97912.09
2022-10-02T00:41:55.083Z,97913.88
2022-10-02T00:43:25.303Z,97916.28
2022-10-02T00:44:40.232Z,97916.75
2022-10-02T00:46:08.069Z,97915.56
2022-10-02T00:47:53.991Z,97916.88
2022-10-02T00:49:05.584Z,97922.38
2022-10-02T00:50:27.994Z,97930.31
2022-10-02T00:51:52.066Z,97939.62
2022-10-02T00:53:07.011Z,97927.16
2022-10-02T00:54:46.314Z,97928.50
2022-10-02T00:56:21.282Z,97924.41
2022-10-02T00:57:48.239Z,97927.87
2022-10-02T00:59:32.100Z,97934.47
2022-10-02T01:00:35.463Z,97931.34
2022-10-02T01:01:44.797Z,97936.47
2022-10-02T01:03:10.214Z,97938.00
2022-10-02T01:04:19.349Z,97935.59
2022-10-02T01:05:22.297Z,97934.16
2022-10-02T01:06:28.041Z,97941.59
2022-10-02T01:07:31.066Z,97941.81
2022-10-02T01:08:37.196Z,97937.25
2022-10-02T01:09:42.130Z,97952.25
2022-10-02T01:10:45.684Z,97950.41
2022-10-02T01:11:49.317Z,97948.72
2022-10-02T01:12:54.503Z,97951.97
2022-10-02T01:13:57.930Z,97952.34
2022-10-02T01:15:00.738Z,97958.28
2022-10-02T01:16:04.242Z,97951.97
2022-10-02T01:17:33.449Z,97951.47
2022-10-02T01:18:36.227Z,97947.66
2022-10-02T01:19:41.782Z,97952.81
2022-10-02T01:20:48.852Z,97946.56
2022-10-02T01:21:58.874Z,97949.53
2022-10-02T01:23:13.150Z,97953.41
2022-10-02T01:24:26.648Z,97945.38
2022-10-02T01:25:29.810Z,97955.03
2022-10-02T01:26:32.818Z,97949.66
2022-10-02T01:27:39.432Z,97950.75
2022-10-02T01:28:42.952Z,97955.16
2022-10-02T01:29:49.030Z,97947.50
2022-10-02T01:30:57.018Z,97950.00
2022-10-02T01:31:59.960Z,97955.03
2022-10-02T01:33:05.094Z,97958.37
2022-10-02T01:34:08.883Z,97964.94
2022-10-02T01:35:11.689Z,97965.78
2022-10-02T01:36:16.559Z,97967.81
2022-10-02T01:37:22.603Z,97972.25
2022-10-02T01:38:25.769Z,97971.88
2022-10-02T01:39:28.830Z,97968.75
2022-10-02T01:40:37.567Z,97971.34
2022-10-02T01:41:44.451Z,97971.75
2022-10-02T01:42:47.355Z,97969.91
2022-10-02T01:43:53.899Z,97972.06
2022-10-02T01:44:56.925Z,97974.81
2022-10-02T01:46:18.220Z,97974.81
2022-10-02T01:47:37.241Z,97983.41
2022-10-02T01:48:47.924Z,97977.50
2022-10-02T01:50:02.851Z,97980.75
2022-10-02T01:51:24.557Z,97978.00
2022-10-02T01:52:50.365Z,97982.44
2022-10-02T01:54:21.456Z,97986.63
2022-10-02T01:55:32.015Z,97989.22
2022-10-02T01:57:04.615Z,97993.56
2022-10-02T01:58:32.817Z,97993.69
2022-10-02T01:59:56.661Z,98001.28
2022-10-02T02:01:05.535Z,98004.09
2022-10-02T02:02:19.416Z,98013.72
2022-10-02T02:04:24.463Z,98014.31
2022-10-02T02:05:40.943Z,98012.03
2022-10-02T02:07:13.267Z,98017.75
2022-10-02T02:08:18.755Z,98022.88
2022-10-02T02:09:52.438Z,98018.56
2022-10-02T02:11:12.536Z,98024.78
2022-10-02T02:12:30.634Z,98016.84
2022-10-02T02:13:39.338Z,98018.00
2022-10-02T02:14:51.868Z,98018.72
2022-10-02T02:16:33.357Z,98011.94
2022-10-02T02:17:57.828Z,98010.81
2022-10-02T02:19:26.762Z,98015.66
2022-10-02T02:20:36.208Z,98008.22
2022-10-02T02:21:47.938Z,98010.63
2022-10-02T02:22:52.145Z,98007.94
2022-10-02T02:23:59.097Z,98011.00
2022-10-02T02:25:11.590Z,98008.69
2022-10-02T02:26:19.111Z,98013.06
2022-10-02T02:27:27.175Z,98016.69
2022-10-02T02:28:32.997Z,98019.84
2022-10-02T02:29:37.835Z,98014.78
2022-10-02T02:30:44.288Z,98017.94
2022-10-02T02:31:51.871Z,98024.63
2022-10-02T02:33:12.252Z,98019.44
2022-10-02T02:34:20.489Z,98020.16
2022-10-02T02:35:31.923Z,98019.28
2022-10-02T02:36:38.892Z,98025.34
2022-10-02T02:37:43.679Z,98022.31
2022-10-02T02:38:51.397Z,98028.41
2022-10-02T02:39:58.362Z,98030.84
2022-10-02T02:41:06.670Z,98027.06
2022-10-02T02:42:16.738Z,98022.41
2022-10-02T02:43:32.140Z,98026.78
2022-10-02T02:44:50.577Z,98024.03
2022-10-02T02:45:57.817Z,98029.41
2022-10-02T02:47:22.739Z,98029.41
2022-10-02T02:48:43.450Z,98033.84
2022-10-02T02:50:00.599Z,98030.62
2022-10-02T02:51:11.171Z,98032.94
2022-10-02T02:52:27.704Z,98030.75
2022-10-02T02:53:37.803Z,98034.81
2022-10-02T02:54:46.605Z,98037.25
2022-10-02T02:55:58.432Z,98031.19
2022-10-02T02:57:05.600Z,98041.16
2022-10-02T02:58:18.170Z,98038.06
2022-10-02T02:59:23.503Z,98037.47
2022-10-02T03:00:26.736Z,98043.97
2022-10-02T03:01:29.549Z,98046.12
2022-10-02T03:02:32.842Z,98051.03
2022-10-02T03:03:35.627Z,98046.97
2022-10-02T03:04:38.455Z,98049.16
2022-10-02T03:05:47.045Z,98046.25
2022-10-02T03:06:55.789Z,98048.75
2022-10-02T03:08:05.682Z,98049.16
2022-10-02T03:09:17.615Z,98052.84
2022-10-02T03:10:39.990Z,98046.97
2022-10-02T03:11:49.366Z,98056.53
2022-10-02T03:13:29.151Z,98053.78
2022-10-02T03:15:19.967Z,98051.63
2022-10-02T03:16:49.929Z,98063.22
2022-10-02T03:17:52.737Z,98061.03
2022-10-02T03:19:23.372Z,98056.69
2022-10-02T03:20:36.721Z,98058.28
2022-10-02T03:21:57.746Z,98064.97
2022-10-02T03:23:16.417Z,98069.44
2022-10-02T03:24:31.526Z,98062.50
2022-10-02T03:25:47.009Z,98073.94
2022-10-02T03:27:29.235Z,98070.00
2022-10-02T03:28:55.514Z,98073.31
2022-10-02T03:30:13.946Z,98074.66
2022-10-02T03:31:19.673Z,98076.97
2022-10-02T03:32:24.413Z,98082.47
2022-10-02T03:33:30.839Z,98081.44
2022-10-02T03:34:34.967Z,98077.69
2022-10-02T03:35:38.570Z,98082.47
2022-10-02T03:36:41.653Z,98090.56
2022-10-02T03:37:56.587Z,98085.06
2022-10-02T03:40:27.662Z,98081.63
2022-10-02T03:41:30.495Z,98082.38
2022-10-02T03:42:35.567Z,98085.84
2022-10-02T03:43:38.871Z,98083.19
2022-10-02T03:44:42.231Z,98076.97
2022-10-02T03:45:51.345Z,98088.72
2022-10-02T03:46:54.596Z,98083.09
2022-10-02T03:47:57.508Z,98097.38
2022-10-02T03:49:00.763Z,98091.88
2022-10-02T03:50:03.791Z,98100.00
2022-10-02T03:51:06.946Z,98099.84
2022-10-02T03:52:21.742Z,98093.78
2022-10-02T03:53:30.105Z,98100.25
2022-10-02T03:54:38.433Z,98101.56
2022-10-02T03:55:46.771Z,98102.44
2022-10-02T03:56:52.409Z,98105.91
2022-10-02T03:57:55.422Z,98104.47
2022-10-02T03:59:01.863Z,98103.47
2022-10-02T04:00:09.228Z,98098.56
2022-10-02T04:01:18.694Z,98101.31
2022-10-02T04:02:26.367Z,98095.81
2022-10-02T04:03:46.396Z,98105.09
2022-10-02T04:05:01.131Z,98096.53
2022-10-02T04:06:11.729Z,98093.22
2022-10-02T04:07:28.507Z,98100.63
2022-10-02T04:08:43.997Z,98100.63
2022-10-02T04:10:15.175Z,98098.59
2022-10-02T04:11:28.660Z,98107.69
2022-10-02T04:12:40.592Z,98102.59
2022-10-02T04:13:56.045Z,98105.09
2022-10-02T04:15:07.684Z,98105.41
2022-10-02T04:16:39.839Z,98114.94
2022-10-02T04:17:58.731Z,98110.16
2022-10-02T04:19:11.428Z,98118.69
2022-10-02T04:20:51.727Z,98121.72
2022-10-02T04:22:21.540Z,98121.00
2022-10-02T04:23:29.991Z,98119.63
2022-10-02T04:25:05.652Z,98115.38
2022-10-02T04:26:27.604Z,98116.88
2022-10-02T04:27:41.155Z,98116.88
2022-10-02T04:28:50.739Z,98126.84
2022-10-02T04:29:58.316Z,98131.63
2022-10-02T04:31:03.047Z,98128.69
2022-10-02T04:32:14.804Z,98126.78
2022-10-02T04:33:24.320Z,98130.84
2022-10-02T04:34:28.241Z,98131.84
2022-10-02T04:35:38.466Z,98127.34
2022-10-02T04:37:22.143Z,98124.16
2022-10-02T04:38:49.499Z,98120.66
2022-10-02T04:40:13.999Z,98133.34
2022-10-02T04:41:19.638Z,98137.56
2022-10-02T04:43:07.658Z,98146.28
2022-10-02T04:44:33.360Z,98152.03
2022-10-02T04:45:48.228Z,98158.84
2022-10-02T04:47:30.585Z,98155.38
2022-10-02T04:48:39.104Z,98156.94
2022-10-02T04:50:17.847Z,98152.28
2022-10-02T04:51:27.799Z,98152.03
2022-10-02T04:52:52.821Z,98156.56
2022-10-02T04:54:03.679Z,98158.84
2022-10-02T04:55:27.650Z,98158.13
2022-10-02T04:57:02.959Z,98160.62
2022-10-02T04:58:23.687Z,98171.16
2022-10-02T04:59:45.232Z,98181.63
2022-10-02T05:01:08.891Z,98178.84
2022-10-02T05:02:30.133Z,98182.44
2022-10-02T05:03:51.462Z,98186.53
2022-10-02T05:05:26.959Z,98181.34
2022-10-02T05:06:36.531Z,98180.00
2022-10-02T05:07:54.640Z,98186.53
2022-10-02T05:09:29.233Z,98191.72
2022-10-02T05:11:09.077Z,98195.69
2022-10-02T05:12:52.239Z,98193.66
2022-10-02T05:14:25.942Z,98196.13
2022-10-02T05:16:01.215Z,98195.28
2022-10-02T05:17:22.529Z,98201.47
2022-10-02T05:19:02.747Z,98196.53
2022-10-02T05:20:23.888Z,98191.44
2022-10-02T05:21:48.584Z,98202.44
2022-10-02T05:23:20.399Z,98208.66
2022-10-02T05:24:46.985Z,98212.72
2022-10-02T05:26:32.500Z,98205.06
2022-10-02T05:28:12.925Z,98204.22
2022-10-02T05:29:35.192Z,98201.03
2022-10-02T05:30:46.705Z,98189.00
2022-10-02T05:32:04.825Z,98191.62
2022-10-02T05:33:32.461Z,98200.47
2022-10-02T05:34:44.009Z,98196.13
2022-10-02T05:35:52.487Z,98207.28
2022-10-02T05:36:58.325Z,98196.59
2022-10-02T05:38:04.003Z,98205.69
2022-10-02T05:39:37.701Z,98203.34
2022-10-02T05:41:07.412Z,98204.66
2022-10-02T05:42:22.183Z,98206.84
2022-10-02T05:44:03.397Z,98204.25
2022-10-02T05:45:23.150Z,98215.09
2022-10-02T05:46:29.895Z,98213.09
2022-10-02T05:47:41.517Z,98210.03
2022-10-02T05:49:01.202Z,98218.00
2022-10-02T05:50:16.129Z,98223.81
2022-10-02T05:51:37.548Z,98214.66
2022-10-02T05:53:00.814Z,98220.03
2022-10-02T05:54:40.243Z,98224.09
2022-10-02T05:55:57.204Z,98222.19
2022-10-02T05:57:32.018Z,98227.09
2022-10-02T05:58:58.865Z,98229.28
2022-10-02T06:00:39.011Z,98224.81
2022-10-02T06:01:47.384Z,98236.53
2022-10-02T06:02:57.647Z,98246.94
2022-10-02T06:04:03.222Z,98246.50
2022-10-02T06:05:19.020Z,98248.53
2022-10-02T06:06:45.198Z,98247.22
2022-10-02T06:07:54.064Z,98249.97
2022-10-02T06:09:05.961Z,98247.78
2022-10-02T06:10:19.611Z,98246.50
2022-10-02T06:11:37.967Z,98250.81
2022-10-02T06:12:50.468Z,98251.53
2022-10-02T06:14:01.024Z,98265.75
2022-10-02T06:15:10.741Z,98251.41
2022-10-02T06:16:19.461Z,98256.19
2022-10-02T06:17:34.316Z,98254.87
2022-10-02T06:18:40.135Z,98262.25
2022-10-02T06:19:57.891Z,98263.13
2022-10-02T06:21:10.911Z,98254.84
2022-10-02T06:22:17.676Z,98264.56
2022-10-02T06:23:43.556Z,98261.94
2022-10-02T06:25:04.482Z,98266.13
2022-10-02T06:26:13.090Z,98268.75
2022-10-02T06:27:38.352Z,98268.03
2022-10-02T06:29:03.758Z,98272.06
2022-10-02T06:30:14.887Z,98271.16
2022-10-02T06:31:35.091Z,98274.84
2022-10-02T06:32:49.821Z,98283.84
2022-10-02T06:33:53.484Z,98272.53
2022-10-02T06:34:57.116Z,98279.63
2022-10-02T06:36:05.985Z,98282.66
2022-10-02T06:37:19.951Z,98274.41
2022-10-02T06:39:08.316Z,98282.97
2022-10-02T06:40:32.859Z,98283.09
2022-10-02T06:41:54.596Z,98285.41
2022-10-02T06:43:19.022Z,98286.00
2022-10-02T06:44:48.285Z,98290.19
2022-10-02T06:45:59.153Z,98301.59
2022-10-02T06:47:17.574Z,98303.31
2022-10-02T06:48:42.012Z,98293.63
2022-10-02T06:50:12.734Z,98291.72
2022-10-02T06:51:49.474Z,98302.06
2022-10-02T06:52:58.306Z,98304.78
2022-10-02T06:54:06.596Z,98311.22
2022-10-02T06:55:22.398Z,98315.25
2022-10-02T06:56:30.878Z,98306.41
2022-10-02T06:58:24.447Z,98318.09
2022-10-02T06:59:47.842Z,98324.47
2022-10-02T07:01:01.572Z,98325.19
2022-10-02T07:02:32.848Z,98324.25
2022-10-02T07:04:04.424Z,98323.38
2022-10-02T07:05:44.450Z,98320.34
2022-10-02T07:07:08.930Z,98336.38
2022-10-02T07:08:27.584Z,98330.31
2022-10-02T07:10:02.440Z,98342.56
2022-10-02T07:11:20.359Z,98336.41
2022-10-02T07:12:24.559Z,98337.66
2022-10-02T07:13:58.812Z,98338.59
2022-10-02T07:15:32.457Z,98344.53
2022-10-02T07:16:51.583Z,98335.56
2022-10-02T07:18:23.566Z,98341.47
2022-10-02T07:19:32.338Z,98346.97
2022-10-02T07:20:41.672Z,98345.06
2022-10-02T07:22:15.121Z,98337.53
2022-10-02T07:23:39.678Z,98344.72
2022-10-02T07:25:16.379Z,98347.47
2022-10-02T07:26:38.551Z,98345.13
2022-10-02T07:28:04.052Z,98350.66
2022-10-02T07:29:09.072Z,98351.62
2022-10-02T07:30:15.394Z,98354.37
2022-10-02T07:31:30.341Z,98350.09
2022-10-02T07:32:48.773Z,98349.84
2022-10-02T07:34:29.299Z,98342.66
2022-10-02T07:35:57.234Z,98348.31
2022-10-02T07:37:17.916Z,98352.78
2022-10-02T07:38:48.254Z,98353.63
2022-10-02T07:40:02.371Z,98350.78
2022-10-02T07:41:30.883Z,98361.81
2022-10-02T07:43:14.957Z,98359.91
2022-10-02T07:44:41.757Z,98360.44
2022-10-02T07:45:57.111Z,98362.53
2022-10-02T07:47:16.002Z,98352.91
2022-10-02T07:48:44.445Z,98348.59
2022-10-02T07:50:21.208Z,98342.94
2022-10-02T07:51:51.586Z,98347.31
2022-10-02T07:53:08.868Z,98345.38
2022-10-02T07:54:34.896Z,98343.94
2022-10-02T07:55:41.814Z,98350.91
2022-10-02T07:56:48.709Z,98350.19
2022-10-02T07:58:37.763Z,98363.53
2022-10-02T07:59:44.014Z,98367.12
2022-10-02T08:00:53.339Z,98369.44
2022-10-02T08:01:56.771Z,98360.19
2022-10-02T08:03:00.738Z,98370.75
2022-10-02T08:04:10.780Z,98370.41
2022-10-02T08:05:23.671Z,98366.78
2022-10-02T08:06:27.386Z,98370.31
2022-10-02T08:07:30.589Z,98367.28
2022-10-02T08:08:39.032Z,98362.13
2022-10-02T08:09:48.270Z,98368.72
2022-10-02T08:11:08.658Z,98380.75
2022-10-02T08:12:28.326Z,98370.53
2022-10-02T08:13:41.458Z,98369.94
2022-10-02T08:14:46.848Z,98378.81
2022-10-02T08:15:55.178Z,98378.94
2022-10-02T08:17:07.013Z,98373.06
2022-10-02T08:18:36.951Z,98379.41
2022-10-02T08:19:46.195Z,98374.75
2022-10-02T08:20:50.322Z,98385.28
2022-10-02T08:22:28.971Z,98385.53
2022-10-02T08:23:54.594Z,98388.31
2022-10-02T08:25:02.357Z,98383.03
2022-10-02T08:26:40.092Z,98385.53
2022-10-02T08:27:56.451Z,98374.50
2022-10-02T08:29:08.686Z,98391.69
2022-10-02T08:30:14.816Z,98387.00
2022-10-02T08:31:17.688Z,98379.56
2022-10-02T08:32:22.727Z,98385.78
2022-10-02T08:33:25.953Z,98389.88
2022-10-02T08:34:32.257Z,98393.59
2022-10-02T08:36:03.835Z,98393.47
2022-10-02T08:37:41.224Z,98387.22
2022-10-02T08:38:55.035Z,98383.47
2022-10-02T08:40:12.662Z,98383.50
2022-10-02T08:41:21.326Z,98390.94
2022-10-02T08:42:30.040Z,98372.06
2022-10-02T08:44:17.704Z,98381.91
2022-10-02T08:45:35.665Z,98381.06
2022-10-02T08:47:05.102Z,98395.84
2022-10-02T08:48:26.940Z,98382.88
2022-10-02T08:49:48.335Z,98396.94
2022-10-02T08:51:22.046Z,98393.94
2022-10-02T08:52:36.605Z,98395.72
2022-10-02T08:53:55.064Z,98388.00
2022-10-02T08:55:16.166Z,98386.56
2022-10-02T08:56:37.240Z,98394.38
2022-10-02T08:57:47.839Z,98381.19
2022-10-02T08:58:59.575Z,98399.56
2022-10-02T09:00:39.382Z,98398.81
2022-10-02T09:01:59.490Z,98398.44
2022-10-02T09:03:28.665Z,98395.53
2022-10-02T09:05:01.207Z,98385.37
2022-10-02T09:06:22.751Z,98383.56
2022-10-02T09:07:40.612Z,98393.53
2022-10-02T09:09:18.833Z,98391.47
2022-10-02T09:10:49.470Z,98383.03
2022-10-02T09:12:11.656Z,98395.97
2022-10-02T09:13:26.627Z,98385.59
2022-10-02T09:14:48.587Z,98395.06
2022-10-02T09:16:04.338Z,98392.97
2022-10-02T09:17:16.456Z,98390.94
2022-10-02T09:18:40.632Z,98393.91
2022-10-02T09:20:12.772Z,98402.72
2022-10-02T09:21:16.894Z,98405.97
2022-10-02T09:22:48.280Z,98406.56
2022-10-02T09:24:21.715Z,98403.34
2022-10-02T09:25:43.323Z,98405.31
2022-10-02T09:26:55.222Z,98395.41
2022-10-02T09:28:18.405Z,98401.84
2022-10-02T09:29:50.370Z,98399.41
2022-10-02T09:31:03.925Z,98400.16
2022-10-02T09:32:42.542Z,98386.28
2022-10-02T09:34:13.910Z,98390.31
2022-10-02T09:35:34.875Z,98376.78
2022-10-02T09:37:09.024Z,98374.31
2022-10-02T09:38:36.861Z,98376.44
2022-10-02T09:39:53.929Z,98382.81
2022-10-02T09:41:21.538Z,98386.63
2022-10-02T09:42:39.477Z,98384.34
2022-10-02T09:43:51.786Z,98382.50
2022-10-02T09:45:22.728Z,98391.13
2022-10-02T09:46:35.703Z,98376.87
2022-10-02T09:48:05.487Z,98382.81
2022-10-02T09:49:33.621Z,98380.47
2022-10-02T09:50:57.533Z,98378.59
2022-10-02T09:53:02.972Z,98371.41
2022-10-02T09:54:50.061Z,98372.03
2022-10-02T09:56:15.645Z,98373.56
2022-10-02T09:57:34.358Z,98380.63
2022-10-02T09:59:19.522Z,98373.41
2022-10-02T10:00:41.778Z,98373.25
2022-10-02T10:02:10.431Z,98367.38
2022-10-02T10:03:44.162Z,98368.00
2022-10-02T10:05:09.079Z,98374.44
2022-10-02T10:06:23.940Z,98374.50
2022-10-02T10:07:35.759Z,98367.22
2022-10-02T10:09:09.616Z,98365.06
2022-10-02T10:10:24.624Z,98365.78
2022-10-02T10:11:30.729Z,98367.28
2022-10-02T10:12:58.368Z,98370.28
2022-10-02T10:14:44.346Z,98370.09
2022-10-02T10:16:28.885Z,98364.56
2022-10-02T10:18:04.463Z,98353.25
2022-10-02T10:19:29.659Z,98352.69
2022-10-02T10:20:34.621Z,98361.09
2022-10-02T10:22:02.637Z,98362.75
2022-10-02T10:23:53.619Z,98355.81
2022-10-02T10:25:18.395Z,98368.97
2022-10-02T10:27:08.320Z,98360.13
2022-10-02T10:28:34.505Z,98362.47
2022-10-02T10:30:14.144Z,98352.38
2022-10-02T10:32:04.409Z,98344.28
2022-10-02T10:33:41.497Z,98343.09
2022-10-02T10:35:19.554Z,98349.03
2022-10-02T10:37:16.672Z,98353.03
2022-10-02T10:38:34.496Z,98343.16
2022-10-02T10:40:01.710Z,98346.06
2022-10-02T10:41:11.308Z,98356.53
2022-10-02T10:42:16.915Z,98357.97
2022-10-02T10:43:22.292Z,98349.53
2022-10-02T10:44:51.130Z,98348.94
2022-10-02T10:46:12.595Z,98354.50
2022-10-02T10:47:44.059Z,98362.81
2022-10-02T10:48:52.825Z,98359.41
2022-10-02T10:50:05.561Z,98355.81
2022-10-02T10:51:17.517Z,98358.28
2022-10-02T10:52:34.400Z,98355.63
2022-10-02T10:54:10.386Z,98342.88
2022-10-02T10:55:21.597Z,98345.84
2022-10-02T10:56:37.338Z,98345.44
2022-10-02T10:58:01.275Z,98342.38
2022-10-02T10:59:08.024Z,98353.53
2022-10-02T11:00:18.544Z,98344.91
2022-10-02T11:01:31.129Z,98337.31
2022-10-02T11:03:10.079Z,98338.56
2022-10-02T11:04:41.338Z,98336.28
2022-10-02T11:05:50.391Z,98337.72
2022-10-02T11:07:16.693Z,98348.31
2022-10-02T11:08:51.187Z,98352.31
2022-10-02T11:10:15.851Z,98355.91
2022-10-02T11:11:37.560Z,98349.53
2022-10-02T11:13:28.424Z,98357.75
2022-10-02T11:14:55.853Z,98359.72
2022-10-02T11:16:07.010Z,98356.75
2022-10-02T11:17:48.735Z,98360.22
2022-10-02T11:19:30.949Z,98354.87
2022-10-02T11:21:10.770Z,98365.56
2022-10-02T11:22:28.063Z,98364.84
2022-10-02T11:23:49.276Z,98365.16
2022-10-02T11:24:57.975Z,98361.87
2022-10-02T11:26:34.268Z,98360.03
2022-10-02T11:28:22.375Z,98346.44
2022-10-02T11:30:05.562Z,98356.50
2022-10-02T11:31:17.640Z,98350.72
2022-10-02T11:32:26.735Z,98346.03
2022-10-02T11:33:33.349Z,98340.00
2022-10-02T11:34:42.983Z,98338.28
2022-10-02T11:36:07.475Z,98342.84
2022-10-02T11:37:32.045Z,98342.22
2022-10-02T11:39:06.827Z,98328.84
2022-10-02T11:40:44.618Z,98329.59
2022-10-02T11:42:24.714Z,98328.88
2022-10-02T11:43:55.097Z,98325.16
2022-10-02T11:45:31.336Z,98325.31
2022-10-02T11:46:59.129Z,98325.56
2022-10-02T11:48:09.331Z,98323.63
2022-10-02T11:49:30.867Z,98344.28
2022-10-02T11:50:47.872Z,98333.09
2022-10-02T11:52:06.124Z,98332.87
2022-10-02T11:53:26.972Z,98333.88
2022-10-02T11:55:02.254Z,98326.28
2022-10-02T11:56:14.900Z,98334.81
2022-10-02T11:57:57.244Z,98327.00
2022-10-02T11:59:19.136Z,98321.97
2022-10-02T12:00:59.034Z,98323.06
2022-10-02T12:02:34.940Z,98325.41
2022-10-02T12:03:46.906Z,98330.97
2022-10-02T12:05:22.038Z,98326.13
2022-10-02T12:07:14.577Z,98335.38
2022-10-02T12:08:52.166Z,98332.13
2022-10-02T12:10:13.715Z,98343.97
2022-10-02T12:11:44.170Z,98345.69
2022-10-02T12:13:16.189Z,98338.00
2022-10-02T12:14:54.062Z,98335.66
2022-10-02T12:16:15.945Z,98335.31
2022-10-02T12:17:27.550Z,98337.19
2022-10-02T12:18:53.411Z,98325.38
2022-10-02T12:20:26.626Z,98328.56
2022-10-02T12:22:21.444Z,98328.44
2022-10-02T12:24:07.427Z,98326.78
2022-10-02T12:25:49.220Z,98325.56
2022-10-02T12:27:13.117Z,98322.28
2022-10-02T12:28:46.068Z,98314.44
2022-10-02T12:30:05.191Z,98311.78
2022-10-02T12:31:21.355Z,98310.44
2022-10-02T12:32:30.296Z,98315.69
2022-10-02T12:33:51.807Z,98310.13
2022-10-02T12:35:23.154Z,98311.38
2022-10-02T12:36:43.799Z,98311.97
2022-10-02T12:37:57.368Z,98306.00
2022-10-02T12:39:00.177Z,98298.03
2022-10-02T12:40:27.248Z,98293.50
2022-10-02T12:41:40.503Z,98287.56
2022-10-02T12:42:50.285Z,98292.78
2022-10-02T12:44:13.451Z,98288.78
2022-10-02T12:45:28.439Z,98278.72
2022-10-02T12:46:59.820Z,98285.34
2022-10-02T12:48:26.402Z,98288.13
2022-10-02T12:49:32.357Z,98296.13
2022-10-02T12:51:27.337Z,98285.63
2022-10-02T12:53:05.630Z,98282.53
2022-10-02T12:54:18.182Z,98274.66
2022-10-02T12:55:59.119Z,98281.50
2022-10-02T12:57:39.331Z,98277.94
2022-10-02T12:59:12.406Z,98275.00
2022-10-02T13:00:19.531Z,98270.16
2022-10-02T13:02:05.982Z,98272.09
2022-10-02T13:03:26.645Z,98273.88
2022-10-02T13:04:53.943Z,98280.63
2022-10-02T13:06:03.725Z,98272.41
2022-10-02T13:07:44.550Z,98275.50
2022-10-02T13:08:56.600Z,98265.56
2022-10-02T13:10:16.611Z,98258.88
2022-10-02T13:11:21.844Z,98261.38
2022-10-02T13:12:38.616Z,98256.06
2022-10-02T13:14:20.389Z,98248.66
2022-10-02T13:15:37.636Z,98254.31
2022-10-02T13:16:49.729Z,98249.81
2022-10-02T13:18:06.553Z,98249.59
2022-10-02T13:19:16.132Z,98245.41
2022-10-02T13:20:26.491Z,98242.13
2022-10-02T13:21:40.951Z,98246.00
2022-10-02T13:23:08.348Z,98243.97
2022-10-02T13:24:27.309Z,98235.66
2022-10-02T13:25:44.362Z,98230.19
2022-10-02T13:26:52.148Z,98237.38
2022-10-02T13:28:20.977Z,98243.44
2022-10-02T13:29:23.645Z,98243.03
2022-10-02T13:30:35.805Z,98241.81
2022-10-02T13:31:53.523Z,98241.37
2022-10-02T13:33:39.055Z,98236.56
2022-10-02T13:35:00.433Z,98239.63
2022-10-02T13:36:35.278Z,98236.03
2022-10-02T13:37:49.403Z,98231.63
2022-10-02T13:39:22.816Z,98233.28
2022-10-02T13:40:52.457Z,98238.72
2022-10-02T13:42:06.863Z,98232.66
2022-10-02T13:43:34.831Z,98224.97
2022-10-02T13:45:11.442Z,98224.34
2022-10-02T13:46:23.932Z,98220.53
2022-10-02T13:47:35.648Z,98208.72
2022-10-02T13:48:55.284Z,98215.50
2022-10-02T13:50:04.007Z,98219.00
2022-10-02T13:51:26.943Z,98214.09
2022-10-02T13:52:48.869Z,98223.59
2022-10-02T13:53:56.690Z,98222.06
2022-10-02T13:55:19.045Z,98209.75
2022-10-02T13:56:43.777Z,98209.03
2022-10-02T13:58:16.951Z,98218.16
2022-10-02T13:59:29.167Z,98221.75
2022-10-02T14:00:38.101Z,98218.28
2022-10-02T14:02:11.231Z,98215.72
2022-10-02T14:03:35.832Z,98214.88
2022-10-02T14:04:47.792Z,98223.50
2022-10-02T14:05:54.456Z,98224.53
2022-10-02T14:07:38.783Z,98219.91
2022-10-02T14:09:04.285Z,98218.25
2022-10-02T14:10:43.791Z,98219.91
2022-10-02T14:12:07.117Z,98222.47
2022-10-02T14:14:04.117Z,98219.38
2022-10-02T14:15:30.873Z,98228.31
2022-10-02T14:16:58.463Z,98221.22
2022-10-02T14:18:14.067Z,98226.63
2022-10-02T14:19:37.571Z,98220.16
2022-10-02T14:20:51.401Z,98216.91
2022-10-02T14:22:15.794Z,98219.34
2022-10-02T14:23:55.541Z,98216.38
2022-10-02T14:25:10.430Z,98211.78
2022-10-02T14:26:21.840Z,98206.84
2022-10-02T14:27:24.392Z,98213.38
2022-10-02T14:28:51.423Z,98212.06
2022-10-02T14:30:17.625Z,98211.13
2022-10-02T14:31:47.394Z,98203.09
2022-10-02T14:33:30.173Z,98203.94
2022-10-02T14:35:18.410Z,98208.53
2022-10-02T14:36:31.048Z,98214.41
2022-10-02T14:38:06.891Z,98203.94
2022-10-02T14:39:41.894Z,98213.84
2022-10-02T14:40:56.220Z,98209.44
2022-10-02T14:42:07.717Z,98209.22
2022-10-02T14:43:20.547Z,98207.78
2022-10-02T14:44:42.339Z,98204.41
2022-10-02T14:46:03.546Z,98205.84
2022-10-02T14:47:21.620Z,98198.56
2022-10-02T14:48:52.806Z,98193.41
2022-10-02T14:50:20.167Z,98193.91
2022-10-02T14:51:25.825Z,98199.94
2022-10-02T14:52:53.833Z,98191.31
2022-10-02T14:54:20.723Z,98185.91
2022-10-02T14:55:48.878Z,98189.97
2022-10-02T14:56:59.894Z,98184.44
2022-10-02T14:58:30.480Z,98184.56
2022-10-02T15:01:13.738Z,98183.00
2022-10-02T15:02:28.704Z,98171.13
2022-10-02T15:03:36.960Z,98175.94
2022-10-02T15:05:12.367Z,98168.59
2022-10-02T15:06:26.199Z,98173.81
2022-10-02T15:07:31.216Z,98170.44
2022-10-02T15:08:40.556Z,98165.63
2022-10-02T15:10:16.607Z,98167.06
2022-10-02T15:11:37.832Z,98170.84
2022-10-02T15:13:02.458Z,98173.47
2022-10-02T15:14:19.104Z,98165.78
2022-10-02T15:15:39.557Z,98169.75
2022-10-02T15:17:06.362Z,98170.50
2022-10-02T15:18:26.562Z,98174.69
2022-10-02T15:19:39.297Z,98176.38
2022-10-02T15:20:59.653Z,98172.13
2022-10-02T15:22:19.371Z,98179.00
2022-10-02T15:23:34.659Z,98178.13
2022-10-02T15:24:45.567Z,98158.69
2022-10-02T15:26:04.920Z,98156.87
2022-10-02T15:27:21.780Z,98160.41
2022-10-02T15:28:40.874Z,98156.94
2022-10-02T15:30:00.796Z,98151.78
2022-10-02T15:31:21.279Z,98149.91
2022-10-02T15:32:39.986Z,98160.22
2022-10-02T15:34:08.528Z,98172.50
2022-10-02T15:35:26.377Z,98162.66
2022-10-02T15:36:29.377Z,98161.69
2022-10-02T15:38:09.412Z,98164.37
2022-10-02T15:39:35.288Z,98158.59
2022-10-02T15:41:13.461Z,98160.06
2022-10-02T15:42:50.080Z,98159.81